Nautilus — OUYX2 — position and weather

sailwx.info

Track history (hours):
 
Tides and Currents Weather Stations Pressure Air Temp Water Temp Dewpoint Dewpoint Depression Visibility Wind Speed Wind Dir Waves Ship Positions

Nautilus

Last reported at 2015-Mar-05 09:33 UTC. Time now 2015-Mar-05 10:27 UTC.
Position N 52°25' E 004°45'.

Length 120 m; draft 6.9 m.

Type: Ship. MMSI: 219425000.

Date/timePositionNaut miles runAvg speedWind from/ knotsBaromVisibWave heightAir tempDewpointWater temp
2015-Mar-05 09:33N 52°25' E 004°45'0 0.0
2015-Mar-05 08:33N 52°25' E 004°45'0 0.0
2015-Mar-05 07:33N 52°25' E 004°45'0 0.0
2015-Mar-05 06:33N 52°25' E 004°45'0 0.0
2015-Mar-05 05:27N 52°25' E 004°45'0 0.0
2015-Mar-05 04:30N 52°25' E 004°45'0 0.0
2015-Mar-05 03:33N 52°25' E 004°45'0 0.0
2015-Mar-05 02:33N 52°25' E 004°45'0 0.0
2015-Mar-05 01:30N 52°25' E 004°45'0 0.0
2015-Mar-05 00:33N 52°25' E 004°45'0 0.0
2015-Mar-04 23:33N 52°25' E 004°45'0 0.0
2015-Mar-04 22:33N 52°25' E 004°45'0 0.0
2015-Mar-04 21:30N 52°25' E 004°45'0 0.0
2015-Mar-04 20:33N 52°25' E 004°45'0 0.0
2015-Mar-04 19:33N 52°25' E 004°45'0 0.0
2015-Mar-04 18:33N 52°25' E 004°45'0 0.0
2015-Mar-04 17:30N 52°25' E 004°45'0 0.0
2015-Mar-04 16:30N 52°25' E 004°45'0 0.0
2015-Mar-04 15:33N 52°25' E 004°45'0 0.0
2015-Mar-04 14:33N 52°25' E 004°45'2 1.7
2015-Mar-04 13:33N 52°26' E 004°43'4 4.3
2015-Mar-04 12:34N 52°28' E 004°37'3 3.3
2015-Mar-04 11:33N 52°28' E 004°31'6 5.7
2015-Mar-04 10:33N 52°28' E 004°22'8 8.3
2015-Mar-04 09:33N 52°28' E 004°08'0 0.0
2015-Mar-04 08:33N 52°28' E 004°08'0 0.1
2015-Mar-04 07:33N 52°28' E 004°08'0 0.1
2015-Mar-04 06:33N 52°28' E 004°08'0 0.0
2015-Mar-04 05:33N 52°28' E 004°08'0 0.0
2015-Mar-04 04:33N 52°28' E 004°08'0 0.0
2015-Mar-04 03:33N 52°28' E 004°08'0 0.0
2015-Mar-04 02:33N 52°28' E 004°08'0 0.0
2015-Mar-04 01:33N 52°28' E 004°08'0 0.0
2015-Mar-04 00:33N 52°28' E 004°08'0 0.1
2015-Mar-03 23:33N 52°28' E 004°08'0 0.0
2015-Mar-03 22:33N 52°28' E 004°08'0 0.0
2015-Mar-03 21:33N 52°28' E 004°08'2 2.0
2015-Mar-03 20:33N 52°30' E 004°09'39 9.7
2015-Mar-03 16:30N 53°08' E 004°21'11 9.3
2015-Mar-03 15:22N 53°18' E 004°29'8 9.8
2015-Mar-03 14:33N 53°25' E 004°33'1110.2
2015-Mar-03 13:29N 53°36' E 004°39'1111.3
2015-Mar-03 12:33N 53°45' E 004°46'1410.7
2015-Mar-03 11:15N 53°58' E 004°55'7 9.8
2015-Mar-03 10:32N 54°05' E 004°57'10 9.5
2015-Mar-03 09:31N 54°13' E 005°06'86 8.5
2015-Mar-02 23:20N 55°26' E 006°25'7 8.2
2015-Mar-02 22:33N 55°32' E 006°30'96 9.5
2015-Mar-02 12:27N 56°55' E 007°57'2310.3
2015-Mar-02 10:15N 57°13' E 008°22'8010.4
2015-Mar-02 02:32N 57°48' E 010°37'1010.2
2015-Mar-02 01:33N 57°46' E 010°55'1111.4
2015-Mar-02 00:33N 57°42' E 011°15'1211.9
2015-Mar-01 23:33N 57°37' E 011°35'10 9.9
2015-Mar-01 22:33N 57°41' E 011°52'0 0.2
2015-Mar-01 21:31N 57°41' E 011°52'0 0.0
2015-Mar-01 20:31N 57°41' E 011°52'0 0.0
2015-Mar-01 19:31N 57°41' E 011°52'0 0.0
2015-Mar-01 18:31N 57°41' E 011°52'0 0.0
2015-Mar-01 17:31N 57°41' E 011°52'0 0.0
2015-Mar-01 16:31N 57°41' E 011°52'0 0.0
2015-Mar-01 15:31N 57°41' E 011°52'0 0.0
2015-Mar-01 14:31N 57°41' E 011°52'0 0.0
2015-Mar-01 13:28N 57°41' E 011°52'0 0.0
2015-Mar-01 12:31N 57°41' E 011°52'0 0.0
2015-Mar-01 11:31N 57°41' E 011°52'0 0.0
2015-Mar-01 10:31N 57°41' E 011°52'0 0.0
2015-Mar-01 09:31N 57°41' E 011°52'0 0.0
2015-Mar-01 08:31N 57°41' E 011°52'0 0.0
2015-Mar-01 07:31N 57°41' E 011°52'0 0.0
2015-Mar-01 06:31N 57°41' E 011°52'0 0.0
2015-Mar-01 05:31N 57°41' E 011°52'2 2.2
2015-Mar-01 04:34N 57°41' E 011°49'1 0.9
2015-Mar-01 03:32N 57°40' E 011°47'0 0.0
2015-Mar-01 02:32N 57°40' E 011°47'0 0.0
2015-Mar-01 01:32N 57°40' E 011°47'0 0.0
2015-Mar-01 00:32N 57°40' E 011°47'0 0.0
2015-Feb-28 23:32N 57°40' E 011°47'0 0.0
2015-Feb-28 22:32N 57°40' E 011°47'0 0.0
2015-Feb-28 21:32N 57°40' E 011°47'0 0.0
2015-Feb-28 20:32N 57°40' E 011°47'0 0.0
2015-Feb-28 19:32N 57°40' E 011°47'0 0.0
2015-Feb-28 18:32N 57°40' E 011°47'0 0.0
2015-Feb-28 17:29N 57°40' E 011°47'0 0.0
2015-Feb-28 16:32N 57°40' E 011°47'0 0.0
2015-Feb-28 15:32N 57°40' E 011°47'0 0.0
2015-Feb-28 14:32N 57°40' E 011°47'0 0.0
2015-Feb-28 13:32N 57°40' E 011°47'0 0.0
2015-Feb-28 12:32N 57°40' E 011°47'0 0.0
2015-Feb-28 11:32N 57°40' E 011°47'0 0.0
2015-Feb-28 10:32N 57°40' E 011°47'0 0.0
2015-Feb-28 09:32N 57°40' E 011°47'0 0.0
2015-Feb-28 08:32N 57°40' E 011°47'0 0.0
2015-Feb-28 07:32N 57°40' E 011°47'0 0.0
2015-Feb-28 06:32N 57°40' E 011°47'0 0.0
2015-Feb-28 05:32N 57°40' E 011°47'0 0.0
2015-Feb-28 04:32N 57°40' E 011°47'0 0.0
2015-Feb-28 03:32N 57°40' E 011°47'0 0.0
2015-Feb-28 02:32N 57°40' E 011°47'0 0.0
2015-Feb-28 01:32N 57°40' E 011°47'0 0.0
2015-Feb-28 00:32N 57°40' E 011°47'0 0.0
2015-Feb-27 23:32N 57°40' E 011°47'0 0.0
2015-Feb-27 22:32N 57°40' E 011°47'0 0.0
2015-Feb-27 21:29N 57°40' E 011°47'0 0.0
2015-Feb-27 20:32N 57°40' E 011°47'0 0.0
2015-Feb-27 19:29N 57°40' E 011°47'0 0.0
2015-Feb-27 18:32N 57°40' E 011°47'0 0.0
2015-Feb-27 17:32N 57°40' E 011°47'0 0.0
2015-Feb-27 16:32N 57°40' E 011°47'0 0.0
2015-Feb-27 15:32N 57°40' E 011°47'0 0.0
2015-Feb-27 14:32N 57°40' E 011°47'0 0.0
2015-Feb-27 13:32N 57°40' E 011°47'0 0.0
2015-Feb-27 12:32N 57°40' E 011°47'0 0.0
2015-Feb-27 11:32N 57°40' E 011°47'0 0.0
2015-Feb-27 10:32N 57°40' E 011°47'5 5.5
2015-Feb-27 09:33N 57°37' E 011°40'1110.9
2015-Feb-27 08:34N 57°40' E 011°20'1212.0
2015-Feb-27 07:33N 57°44' E 010°60'1312.6
2015-Feb-27 06:33N 57°48' E 010°37'1413.9
2015-Feb-27 05:32N 57°44' E 010°12'5513.7
2015-Feb-27 01:32N 57°20' E 008°41'11313.7
2015-Feb-26 17:16N 55°35' E 007°25'5 6.7
2015-Feb-26 16:33N 55°31' E 007°30'1212.3
2015-Feb-26 15:34N 55°25' E 007°48'1211.5
2015-Feb-26 14:33N 55°25' E 008°09'1010.1
2015-Feb-26 13:33N 55°28' E 008°25'0 0.2
2015-Feb-26 12:29N 55°28' E 008°26'0 0.0
2015-Feb-26 11:29N 55°28' E 008°26'0 0.0
2015-Feb-26 10:29N 55°28' E 008°26'0 0.0
2015-Feb-26 09:32N 55°28' E 008°26'0 0.0
2015-Feb-26 08:32N 55°28' E 008°26'0 0.0
2015-Feb-26 07:32N 55°28' E 008°26'0 0.0
2015-Feb-26 06:23N 55°28' E 008°26'0 0.0
2015-Feb-26 05:32N 55°28' E 008°26'0 0.0
2015-Feb-26 03:11N 55°28' E 008°26'0 0.0
2015-Feb-26 02:29N 55°28' E 008°26'0 0.0
2015-Feb-26 01:26N 55°28' E 008°26'0 0.0
2015-Feb-26 00:29N 55°28' E 008°26'0 0.0
2015-Feb-25 23:29N 55°28' E 008°26'0 0.0
2015-Feb-25 22:26N 55°28' E 008°26'1 1.2
2015-Feb-25 21:33N 55°29' E 008°24'10 9.5
2015-Feb-25 20:33N 55°24' E 008°10'1111.2
2015-Feb-25 19:33N 55°24' E 007°50'1413.7
2015-Feb-25 18:33N 55°31' E 007°29'9 8.7
2015-Feb-25 17:33N 55°38' E 007°19'  
Track history (hours):
 
Tides and Currents Weather Stations Pressure Air Temp Water Temp Dewpoint Dewpoint Depression Visibility Wind Speed Wind Dir Waves Ship Positions

Nautilus

Last reported at 2015-Mar-05 09:33 UTC. Time now 2015-Mar-05 10:27 UTC.
Position N 52°25' E 004°45'.

Length 120 m; draft 6.9 m.

Type: Ship. MMSI: 219425000.

Date/timePositionNaut miles runAvg speedWind from/ knotsBaromVisibWave heightAir tempDewpointWater temp
2015-Mar-05 09:33N 52°25' E 004°45'0 0.0
2015-Mar-05 08:33N 52°25' E 004°45'0 0.0
2015-Mar-05 07:33N 52°25' E 004°45'0 0.0
2015-Mar-05 06:33N 52°25' E 004°45'0 0.0
2015-Mar-05 05:27N 52°25' E 004°45'0 0.0
2015-Mar-05 04:30N 52°25' E 004°45'0 0.0
2015-Mar-05 03:33N 52°25' E 004°45'0 0.0
2015-Mar-05 02:33N 52°25' E 004°45'0 0.0
2015-Mar-05 01:30N 52°25' E 004°45'0 0.0
2015-Mar-05 00:33N 52°25' E 004°45'0 0.0
2015-Mar-04 23:33N 52°25' E 004°45'0 0.0
2015-Mar-04 22:33N 52°25' E 004°45'0 0.0
2015-Mar-04 21:30N 52°25' E 004°45'0 0.0
2015-Mar-04 20:33N 52°25' E 004°45'0 0.0
2015-Mar-04 19:33N 52°25' E 004°45'0 0.0
2015-Mar-04 18:33N 52°25' E 004°45'0 0.0
2015-Mar-04 17:30N 52°25' E 004°45'0 0.0
2015-Mar-04 16:30N 52°25' E 004°45'0 0.0
2015-Mar-04 15:33N 52°25' E 004°45'0 0.0
2015-Mar-04 14:33N 52°25' E 004°45'2 1.7
2015-Mar-04 13:33N 52°26' E 004°43'4 4.3
2015-Mar-04 12:34N 52°28' E 004°37'3 3.3
2015-Mar-04 11:33N 52°28' E 004°31'6 5.7
2015-Mar-04 10:33N 52°28' E 004°22'8 8.3
2015-Mar-04 09:33N 52°28' E 004°08'0 0.0
2015-Mar-04 08:33N 52°28' E 004°08'0 0.1
2015-Mar-04 07:33N 52°28' E 004°08'0 0.1
2015-Mar-04 06:33N 52°28' E 004°08'0 0.0
2015-Mar-04 05:33N 52°28' E 004°08'0 0.0
2015-Mar-04 04:33N 52°28' E 004°08'0 0.0
2015-Mar-04 03:33N 52°28' E 004°08'0 0.0
2015-Mar-04 02:33N 52°28' E 004°08'0 0.0
2015-Mar-04 01:33N 52°28' E 004°08'0 0.0
2015-Mar-04 00:33N 52°28' E 004°08'0 0.1
2015-Mar-03 23:33N 52°28' E 004°08'0 0.0
2015-Mar-03 22:33N 52°28' E 004°08'0 0.0
2015-Mar-03 21:33N 52°28' E 004°08'2 2.0
2015-Mar-03 20:33N 52°30' E 004°09'39 9.7
2015-Mar-03 16:30N 53°08' E 004°21'11 9.3
2015-Mar-03 15:22N 53°18' E 004°29'8 9.8
2015-Mar-03 14:33N 53°25' E 004°33'1110.2
2015-Mar-03 13:29N 53°36' E 004°39'1111.3
2015-Mar-03 12:33N 53°45' E 004°46'1410.7
2015-Mar-03 11:15N 53°58' E 004°55'7 9.8
2015-Mar-03 10:32N 54°05' E 004°57'10 9.5
2015-Mar-03 09:31N 54°13' E 005°06'86 8.5
2015-Mar-02 23:20N 55°26' E 006°25'7 8.2
2015-Mar-02 22:33N 55°32' E 006°30'96 9.5
2015-Mar-02 12:27N 56°55' E 007°57'2310.3
2015-Mar-02 10:15N 57°13' E 008°22'8010.4
2015-Mar-02 02:32N 57°48' E 010°37'1010.2
2015-Mar-02 01:33N 57°46' E 010°55'1111.4
2015-Mar-02 00:33N 57°42' E 011°15'1211.9
2015-Mar-01 23:33N 57°37' E 011°35'10 9.9
2015-Mar-01 22:33N 57°41' E 011°52'0 0.2
2015-Mar-01 21:31N 57°41' E 011°52'0 0.0
2015-Mar-01 20:31N 57°41' E 011°52'0 0.0
2015-Mar-01 19:31N 57°41' E 011°52'0 0.0
2015-Mar-01 18:31N 57°41' E 011°52'0 0.0
2015-Mar-01 17:31N 57°41' E 011°52'0 0.0
2015-Mar-01 16:31N 57°41' E 011°52'0 0.0
2015-Mar-01 15:31N 57°41' E 011°52'0 0.0
2015-Mar-01 14:31N 57°41' E 011°52'0 0.0
2015-Mar-01 13:28N 57°41' E 011°52'0 0.0
2015-Mar-01 12:31N 57°41' E 011°52'0 0.0
2015-Mar-01 11:31N 57°41' E 011°52'0 0.0
2015-Mar-01 10:31N 57°41' E 011°52'0 0.0
2015-Mar-01 09:31N 57°41' E 011°52'0 0.0
2015-Mar-01 08:31N 57°41' E 011°52'0 0.0
2015-Mar-01 07:31N 57°41' E 011°52'0 0.0
2015-Mar-01 06:31N 57°41' E 011°52'0 0.0
2015-Mar-01 05:31N 57°41' E 011°52'2 2.2
2015-Mar-01 04:34N 57°41' E 011°49'1 0.9
2015-Mar-01 03:32N 57°40' E 011°47'0 0.0
2015-Mar-01 02:32N 57°40' E 011°47'0 0.0
2015-Mar-01 01:32N 57°40' E 011°47'0 0.0
2015-Mar-01 00:32N 57°40' E 011°47'0 0.0
2015-Feb-28 23:32N 57°40' E 011°47'0 0.0
2015-Feb-28 22:32N 57°40' E 011°47'0 0.0
2015-Feb-28 21:32N 57°40' E 011°47'0 0.0
2015-Feb-28 20:32N 57°40' E 011°47'0 0.0
2015-Feb-28 19:32N 57°40' E 011°47'0 0.0
2015-Feb-28 18:32N 57°40' E 011°47'0 0.0
2015-Feb-28 17:29N 57°40' E 011°47'0 0.0
2015-Feb-28 16:32N 57°40' E 011°47'0 0.0
2015-Feb-28 15:32N 57°40' E 011°47'0 0.0
2015-Feb-28 14:32N 57°40' E 011°47'0 0.0
2015-Feb-28 13:32N 57°40' E 011°47'0 0.0
2015-Feb-28 12:32N 57°40' E 011°47'0 0.0
2015-Feb-28 11:32N 57°40' E 011°47'0 0.0
2015-Feb-28 10:32N 57°40' E 011°47'0 0.0
2015-Feb-28 09:32N 57°40' E 011°47'0 0.0
2015-Feb-28 08:32N 57°40' E 011°47'0 0.0
2015-Feb-28 07:32N 57°40' E 011°47'0 0.0
2015-Feb-28 06:32N 57°40' E 011°47'0 0.0
2015-Feb-28 05:32N 57°40' E 011°47'0 0.0
2015-Feb-28 04:32N 57°40' E 011°47'0 0.0
2015-Feb-28 03:32N 57°40' E 011°47'0 0.0
2015-Feb-28 02:32N 57°40' E 011°47'0 0.0
2015-Feb-28 01:32N 57°40' E 011°47'0 0.0
2015-Feb-28 00:32N 57°40' E 011°47'0 0.0
2015-Feb-27 23:32N 57°40' E 011°47'0 0.0
2015-Feb-27 22:32N 57°40' E 011°47'0 0.0
2015-Feb-27 21:29N 57°40' E 011°47'0 0.0
2015-Feb-27 20:32N 57°40' E 011°47'0 0.0
2015-Feb-27 19:29N 57°40' E 011°47'0 0.0
2015-Feb-27 18:32N 57°40' E 011°47'0 0.0
2015-Feb-27 17:32N 57°40' E 011°47'0 0.0
2015-Feb-27 16:32N 57°40' E 011°47'0 0.0
2015-Feb-27 15:32N 57°40' E 011°47'0 0.0
2015-Feb-27 14:32N 57°40' E 011°47'0 0.0
2015-Feb-27 13:32N 57°40' E 011°47'0 0.0
2015-Feb-27 12:32N 57°40' E 011°47'0 0.0
2015-Feb-27 11:32N 57°40' E 011°47'0 0.0
2015-Feb-27 10:32N 57°40' E 011°47'5 5.5
2015-Feb-27 09:33N 57°37' E 011°40'1110.9
2015-Feb-27 08:34N 57°40' E 011°20'1212.0
2015-Feb-27 07:33N 57°44' E 010°60'1312.6
2015-Feb-27 06:33N 57°48' E 010°37'1413.9
2015-Feb-27 05:32N 57°44' E 010°12'5513.7
2015-Feb-27 01:32N 57°20' E 008°41'11313.7
2015-Feb-26 17:16N 55°35' E 007°25'5 6.7
2015-Feb-26 16:33N 55°31' E 007°30'1212.3
2015-Feb-26 15:34N 55°25' E 007°48'1211.5
2015-Feb-26 14:33N 55°25' E 008°09'1010.1
2015-Feb-26 13:33N 55°28' E 008°25'0 0.2
2015-Feb-26 12:29N 55°28' E 008°26'0 0.0
2015-Feb-26 11:29N 55°28' E 008°26'0 0.0
2015-Feb-26 10:29N 55°28' E 008°26'0 0.0
2015-Feb-26 09:32N 55°28' E 008°26'0 0.0
2015-Feb-26 08:32N 55°28' E 008°26'0 0.0
2015-Feb-26 07:32N 55°28' E 008°26'0 0.0
2015-Feb-26 06:23N 55°28' E 008°26'0 0.0
2015-Feb-26 05:32N 55°28' E 008°26'0 0.0
2015-Feb-26 03:11N 55°28' E 008°26'0 0.0
2015-Feb-26 02:29N 55°28' E 008°26'0 0.0
2015-Feb-26 01:26N 55°28' E 008°26'0 0.0
2015-Feb-26 00:29N 55°28' E 008°26'0 0.0
2015-Feb-25 23:29N 55°28' E 008°26'0 0.0
2015-Feb-25 22:26N 55°28' E 008°26'1 1.2
2015-Feb-25 21:33N 55°29' E 008°24'10 9.5
2015-Feb-25 20:33N 55°24' E 008°10'1111.2
2015-Feb-25 19:33N 55°24' E 007°50'1413.7
2015-Feb-25 18:33N 55°31' E 007°29'9 8.7
2015-Feb-25 17:33N 55°38' E 007°19'  

Dump ship's entire track history